Airfield :
LOGIN :

Register | Disclaimer

   EN    FR    IT 

 










Legend :    VFR   Marginal VFR   IFR   Intensive IFR   Very Intensive IFR
Visi :
Ceiling :
>= 8 km
>= 3000ft
5 to 8 km
1000 to 3000 ft
1500m to 5 km
500 to 1000 ft
800 to 1500m
200 to 500 ft
< 800m
< 200 ft
Symbols :   Thunderstorms  Fog  Heavy snow  Heavy precipitations  Wind > 20 kt
SIGMETs :     Misc.  Thunderstorms  Icing  Turbulence  Mountain Waves  Volcanic Ashes






- Airport Elevation : 0 ft


ETEB - Ansbach Army Heliport

CURRENT METAR :
  • 251538Z 23004KT 9999 OVC024 M01/M01 A2966 RMK AO2A SNB29E38 SLP089 FZRANO $

EXPIRED METARs :
  • 251411Z AUTO 00000KT 9999 -UP SCT008 OVC021 00/00 A2962 RMK AO2 SNE1359UPB1359 SLP073 FZRANO $

TAF TAF ETEB
Valid from the 25 at 09:00 until the 26 at 15:00 UTC


250900Z 2509/2615 18009KT 5000 -SN OVC010 620109 QNH2952INS
TEMPO 2510/2512 2000 -SN OVC007 620079
BECMG 2511/2512 29009KT 4000 -SN OVC012 620128 QNH2954INS
TEMPO 2512/2515 2800 -SN OVC008 620089
BECMG 2515/2516 30009KT 9999 NSW OVC012 620127 QNH2960INS
BECMG 2517/2518 30009KT 9999 OVC006 620067 QNH2967INS
BECMG 2605/2606 28012G18KT 4000 -SN OVC008 620089 QNH2986INS TX00/2512Z TNM04/2604Z



MET'MAP, your aeronautical weather chart ! - Copyright ORBIFLY December 2007 - Disclaimer

ORBIFLY MET'MAP TEAM :

Programming & Development : Alexandra Zaïnal
Concept & original design : Baudouin d'Aumeries
Assistance for programming : Marc-Olivier Méhu
Technical & hardware support : Manuel Goepfert

Contact : metmap@orbifly.com




SOURCES & CREDITS :

   NOAA